Flight Track Log - Related Links

Times and Time Zones

All times are in EDT time to prevent confusion due to time zone crossing. See the N269AM flight status page for this flight to view local times or setup timezone preferences in your user account.

Time Position Orientation Groundspeed Altitude Reporting Facility
EDT Latitude Longitude Course Direction KTS MPH feet Rate Location/Type
Fri 02:20:34 PM 45.0672 -122.9922 North 85 98 5,000  Level Seattle Center
Fri 02:21:35 PM 45.0908 -122.9867 North 86 99 5,400 444 Climbing Seattle Center
Fri 02:22:00 PM 45.0683 -122.9926 North  Level FlightAware Approximate
Fri 02:22:22 PM 45.1111 -122.9861 North 84 97 5,800  Level Seattle Center
Fri 02:22:37 PM 45.1139 -122.9850 16° North 85 98 5,800 269 Level Seattle Center
Fri 02:23:00 PM 45.0922 -122.9880 North  Level FlightAware Approximate
Fri 02:23:29 PM 45.1353 -122.9889 353° North 79 91 6,100  Level Seattle Center
Fri 02:23:38 PM 45.1358 -122.9886 19° North 80 92 6,100 -100 Level Seattle Center
Fri 02:24:00 PM 45.1161 -122.9835 North  Level FlightAware Approximate
Fri 02:24:29 PM 45.1583 -122.9950 349° North 81 93 6,000  Level Seattle Center
Fri 02:24:39 PM 45.1581 -122.9931 101° East 81 93 6,000 -85 Level Seattle Center
Fri 02:25:00 PM 45.1406 -122.9833 North  Level FlightAware Approximate
Fri 02:25:40 PM 45.1858 -122.9892 North 86 99 5,900  Level Seattle Center
Fri 02:25:42 PM 45.1875 -122.9894 353° North 92 106 5,900 -421 Level Seattle Center
Fri 02:26:37 PM 45.1914 -122.9542 81° East 115 132 5,500 -407 Descending Seattle Center
Fri 02:26:41 PM 45.1911 -122.9508 97° East 104 120 5,500 -200 Level Seattle Center
Fri 02:27:37 PM 45.1764 -122.9233 127° Southeast 94 108 5,300 -97 Descending Seattle Center
Fri 02:27:43 PM 45.1753 -122.9192 111° Southeast 102 117 5,400 -98 Climbing Seattle Center
Fri 02:28:38 PM 45.1550 -122.9136 169° South 73 84 5,200 -295 Descending Seattle Center
Fri 02:28:44 PM 45.1533 -122.9106 128° Southeast 86 99 5,100 -269 Descending Seattle Center
Fri 02:29:45 PM 45.1333 -122.8958 153° Southeast 81 93 4,900 -55 Descending Seattle Center
Fri 02:30:33 PM 45.1169 -122.8861 157° South 74 85 5,000 98 Climbing Seattle Center
Fri 02:30:46 PM 45.1150 -122.8831 132° Southeast 77 89 5,000 98 Level Seattle Center
Fri 02:31:34 PM 45.1011 -122.8711 149° Southeast 72 83 5,100  Climbing Seattle Center
Fri 02:31:47 PM 45.0981 -122.8675 140° Southeast 74 85 5,000 -329 Descending Seattle Center
Fri 02:32:47 PM 45.0772 -122.8500 149° Southeast 83 96 4,700 -290 Descending Seattle Center
Fri 02:32:49 PM 45.0794 -122.8497 North 78 90 4,700 -393 Level Seattle Center
Fri 02:33:48 PM 45.0572 -122.8367 157° South 82 94 4,300 -393 Descending Seattle Center
Fri 02:33:50 PM 45.0592 -122.8358 17° North 81 93 4,300 -333 Level Seattle Center
Fri 02:34:42 PM 45.0428 -122.8181 143° Southeast 77 89 4,000 -295 Descending Seattle Center
Fri 02:34:51 PM 45.0431 -122.8161 79° East 77 89 4,000 -90 Level Seattle Center
Fri 02:35:49 PM 45.0250 -122.7944 140° Southeast 75 86 3,900 -98 Descending Seattle Center
Fri 02:35:52 PM 45.0278 -122.7953 348° North 76 87 3,900 -200 Level Seattle Center
Fri 02:36:49 PM 45.0103 -122.7761 142° Southeast 76 87 3,700 -295 Descending Seattle Center
Fri 02:36:53 PM 45.0086 -122.7778 215° Southwest 70 81 3,600 -92 Descending Seattle Center
Fri 02:37:54 PM 45.0147 -122.7958 296° West 85 98 3,600  Level Seattle Center
Fri 02:38:56 PM 45.0406 -122.8094 340° North 99 114 3,600 -146 Level Seattle Center
Fri 02:39:57 PM 45.0725 -122.8058 North 103 119 3,300 -295 Descending Seattle Center

Login

Don't have an account? Register now (free) for customized features, flight alerts, and more!